createdAt,value
2023-02-26T00:09:45.054Z,2.80
2023-02-26T00:19:45.547Z,2.90
2023-02-26T00:29:47.320Z,3.10
2023-02-26T00:39:46.482Z,2.70
2023-02-26T00:49:46.966Z,3.10
2023-02-26T00:59:47.403Z,3.20
2023-02-26T01:09:49.629Z,2.60
2023-02-26T01:19:48.435Z,2.30
2023-02-26T01:29:48.885Z,2.30
2023-02-26T01:39:49.325Z,2.20
2023-02-26T01:49:49.826Z,2.10
2023-02-26T01:59:50.306Z,2.70
2023-02-26T02:09:50.777Z,2.30
2023-02-26T02:19:51.200Z,2.20
2023-02-26T02:29:51.627Z,2.40
2023-02-26T02:39:52.133Z,2.60
2023-02-26T02:49:52.578Z,2.50
2023-02-26T03:09:53.341Z,2.30
2023-02-26T03:29:54.184Z,1.90
2023-02-26T03:39:54.607Z,2.40
2023-02-26T03:49:56.237Z,2.40
2023-02-26T03:59:55.282Z,2.70
2023-02-26T04:09:55.691Z,2.50
2023-02-26T04:19:55.946Z,2.70
2023-02-26T04:29:56.235Z,2.90
2023-02-26T04:39:56.635Z,3.20
2023-02-26T04:49:56.981Z,3.20
2023-02-26T04:59:57.332Z,3.40
2023-02-26T05:09:57.721Z,3.60
2023-02-26T05:19:59.119Z,3.10
2023-02-26T05:29:58.447Z,3.30
2023-02-26T05:39:58.828Z,3.70
2023-02-26T05:49:59.217Z,3.40
2023-02-26T05:59:59.624Z,3.40
2023-02-26T06:09:59.994Z,3.70
2023-02-26T06:20:00.400Z,3.90
2023-02-26T06:30:00.715Z,3.80
2023-02-26T06:40:01.010Z,3.70
2023-02-26T06:50:01.348Z,3.70
2023-02-26T07:00:01.934Z,3.60
2023-02-26T07:10:02.146Z,4.30
2023-02-26T07:20:02.247Z,4.20
2023-02-26T07:30:02.520Z,4.00
2023-02-26T07:40:02.808Z,4.00
2023-02-26T07:50:03.173Z,3.90
2023-02-26T08:00:03.635Z,3.20
2023-02-26T08:10:04.148Z,3.30
2023-02-26T08:20:04.454Z,2.80
2023-02-26T08:30:04.900Z,2.50
2023-02-26T08:40:05.325Z,2.20
2023-02-26T09:00:06.279Z,2.50
2023-02-26T09:10:07.049Z,3.20
2023-02-26T09:20:07.285Z,2.80
2023-02-26T09:30:07.754Z,3.30
2023-02-26T09:40:08.114Z,2.30
2023-02-26T09:50:08.562Z,2.20
2023-02-26T10:00:09.052Z,2.20
2023-02-26T10:10:09.611Z,2.60
2023-02-26T10:20:10.464Z,3.00
2023-02-26T10:30:10.703Z,3.10
2023-02-26T10:40:11.239Z,3.00
2023-02-26T10:50:11.962Z,2.70
2023-02-26T11:00:12.407Z,3.00
2023-02-26T11:10:13.164Z,2.50
2023-02-26T11:20:13.638Z,2.80
2023-02-26T11:30:14.218Z,3.20
2023-02-26T11:40:14.988Z,3.60
2023-02-26T11:50:15.788Z,3.30
2023-02-26T12:00:16.307Z,3.70
2023-02-26T12:10:16.882Z,3.50
2023-02-26T12:20:17.188Z,3.20
2023-02-26T12:30:17.780Z,3.20
2023-02-26T12:40:18.405Z,3.10
2023-02-26T12:50:19.100Z,3.50
2023-02-26T13:00:19.837Z,3.70
2023-02-26T13:10:20.572Z,2.80
2023-02-26T13:20:21.256Z,2.30
2023-02-26T13:30:21.939Z,2.20
2023-02-26T13:40:22.257Z,2.30
2023-02-26T13:50:22.938Z,2.50
2023-02-26T14:00:23.280Z,3.00
2023-02-26T14:10:23.807Z,3.10
2023-02-26T14:20:24.322Z,2.60
2023-02-26T14:30:24.550Z,3.00
2023-02-26T14:40:25.353Z,3.00
2023-02-26T14:50:25.919Z,3.20
2023-02-26T15:00:26.489Z,3.40
2023-02-26T15:10:27.108Z,3.20
2023-02-26T15:20:27.404Z,3.50
2023-02-26T15:30:28.411Z,3.10
2023-02-26T15:40:29.004Z,3.00
2023-02-26T15:50:29.237Z,2.70
2023-02-26T16:00:29.673Z,3.10
2023-02-26T16:10:30.477Z,3.00
2023-02-26T16:20:30.892Z,3.40
2023-02-26T16:30:31.417Z,3.80
2023-02-26T16:40:32.715Z,3.70
2023-02-26T16:50:32.026Z,3.30
2023-02-26T17:00:32.537Z,4.00
2023-02-26T17:10:32.859Z,4.80
2023-02-26T17:20:35.504Z,4.80
2023-02-26T17:30:34.195Z,4.40
2023-02-26T17:40:34.122Z,4.50
2023-02-26T17:50:34.497Z,4.90
2023-02-26T18:10:37.503Z,6.20
2023-02-26T18:20:35.824Z,5.80
2023-02-26T18:30:36.415Z,6.50
2023-02-26T18:40:37.120Z,6.60
2023-02-26T18:50:37.039Z,6.20
2023-02-26T19:00:37.544Z,6.80
2023-02-26T19:10:37.754Z,6.70
2023-02-26T19:20:38.423Z,6.50
2023-02-26T19:30:38.848Z,7.20
2023-02-26T19:40:38.961Z,7.00
2023-02-26T19:50:39.702Z,6.50
2023-02-26T20:00:40.097Z,5.80
2023-02-26T20:10:40.407Z,5.70
2023-02-26T20:20:40.901Z,6.30
2023-02-26T20:30:42.470Z,5.20
2023-02-26T20:40:41.761Z,4.10
2023-02-26T20:50:42.154Z,4.00
2023-02-26T21:00:42.551Z,3.50
2023-02-26T21:10:44.503Z,3.90
2023-02-26T21:20:42.943Z,3.80
2023-02-26T21:30:43.415Z,3.50
2023-02-26T21:40:43.764Z,3.50
2023-02-26T21:50:44.163Z,3.80
2023-02-26T22:00:44.541Z,4.00
2023-02-26T22:10:44.922Z,4.20
2023-02-26T22:20:45.549Z,3.30
2023-02-26T22:40:46.255Z,3.40
2023-02-26T22:50:46.709Z,3.70
2023-02-26T23:00:46.782Z,3.20
2023-02-26T23:10:46.914Z,3.50
2023-02-26T23:20:47.181Z,3.10
2023-02-26T23:30:47.631Z,2.70
2023-02-26T23:40:47.751Z,3.10
2023-02-26T23:50:47.956Z,3.00
